createdAt,value
2022-10-31T11:03:46.356Z,25.86
2022-10-31T11:06:22.317Z,25.68
2022-10-31T11:08:49.811Z,25.57
2022-10-31T11:11:30.000Z,25.51
2022-10-31T11:14:03.306Z,25.43
2022-10-31T11:16:46.314Z,25.38
2022-10-31T11:19:12.733Z,25.30
2022-10-31T11:21:39.251Z,25.21
2022-10-31T11:24:11.821Z,25.13
2022-10-31T11:26:40.018Z,25.07
2022-10-31T11:29:31.778Z,25.00
2022-10-31T11:32:01.261Z,24.94
2022-10-31T11:34:35.482Z,24.89
2022-10-31T11:37:11.053Z,24.93
2022-10-31T11:39:42.847Z,24.95
2022-10-31T11:42:09.498Z,24.97
2022-10-31T11:44:36.120Z,25.00
2022-10-31T15:52:33.447Z,20.30
2022-10-31T15:55:04.682Z,19.05
2022-10-31T15:57:31.638Z,17.90
2022-10-31T15:59:58.582Z,16.92
2022-10-31T16:02:28.373Z,16.16
2022-10-31T16:05:02.272Z,15.54
2022-10-31T16:07:32.159Z,15.03
2022-10-31T16:10:01.182Z,14.59
2022-10-31T16:12:36.463Z,14.19
2022-10-31T16:15:05.706Z,13.85
2022-10-31T16:17:32.730Z,13.57
2022-10-31T16:20:01.945Z,13.32
2022-10-31T16:22:31.616Z,13.09
2022-10-31T16:25:06.720Z,12.86
2022-10-31T16:27:36.405Z,12.66
2022-10-31T16:30:25.103Z,12.52
2022-10-31T16:32:57.133Z,12.37
2022-10-31T16:35:38.835Z,12.24
2022-10-31T16:38:06.385Z,12.15
2022-10-31T16:40:33.496Z,12.08
2022-10-31T16:43:01.279Z,12.02
2022-10-31T16:45:31.046Z,11.96
2022-10-31T16:48:12.319Z,11.92
2022-10-31T16:50:39.373Z,11.86
2022-10-31T16:53:13.833Z,11.84
2022-10-31T16:55:47.650Z,11.82
2022-10-31T16:58:33.784Z,11.79
2022-10-31T17:01:01.880Z,11.75
2022-10-31T17:03:28.604Z,11.71
2022-10-31T17:05:55.096Z,11.69
2022-10-31T17:08:21.712Z,11.69
2022-10-31T17:10:51.607Z,11.66
2022-10-31T17:13:21.128Z,11.61
2022-10-31T17:15:54.045Z,11.57
2022-10-31T17:18:26.097Z,11.55
2022-10-31T17:20:59.301Z,11.55
2022-10-31T17:23:26.088Z,11.54
2022-10-31T17:25:52.566Z,11.54
2022-10-31T17:28:19.065Z,11.54
2022-10-31T17:30:45.605Z,11.55
2022-10-31T17:33:13.875Z,11.56
2022-10-31T17:35:40.618Z,11.55
2022-10-31T17:38:07.059Z,11.55
2022-10-31T17:40:33.671Z,11.52
2022-10-31T17:43:00.539Z,11.51
2022-10-31T17:45:27.345Z,11.50
2022-10-31T17:47:54.334Z,11.50
2022-10-31T17:50:25.790Z,11.50
2022-10-31T17:52:52.902Z,11.50
2022-10-31T17:55:20.095Z,11.52
2022-10-31T17:57:46.533Z,11.52
2022-10-31T18:00:18.653Z,11.51
2022-10-31T18:02:45.340Z,11.51
2022-10-31T18:05:12.086Z,11.49
2022-10-31T18:07:38.732Z,11.44
2022-10-31T18:10:06.382Z,11.41
2022-10-31T18:12:36.163Z,11.38
2022-10-31T18:15:02.760Z,11.36
2022-10-31T18:17:29.284Z,11.37
2022-10-31T18:19:55.871Z,11.37
2022-10-31T18:22:22.406Z,11.37
2022-10-31T18:24:48.888Z,11.37
2022-10-31T18:27:15.431Z,11.37
2022-10-31T18:29:41.877Z,11.35
2022-10-31T18:32:11.141Z,11.30
2022-10-31T18:34:37.581Z,11.28
2022-10-31T18:37:04.180Z,11.25
2022-10-31T18:39:30.684Z,11.24
2022-10-31T18:41:57.248Z,11.24
2022-10-31T18:44:23.770Z,11.22
2022-10-31T18:46:50.240Z,11.22
2022-10-31T18:49:16.765Z,11.23
2022-10-31T18:51:43.201Z,11.24
2022-10-31T18:54:09.666Z,11.24
2022-10-31T18:56:36.133Z,11.26
2022-10-31T18:59:02.771Z,11.24
2022-10-31T19:01:29.554Z,11.23
2022-10-31T19:03:57.930Z,11.22
2022-10-31T19:06:26.049Z,11.21
2022-10-31T19:09:00.870Z,11.20
2022-10-31T19:11:27.861Z,11.20
2022-10-31T19:13:54.540Z,11.21
2022-10-31T19:16:21.044Z,11.22
2022-10-31T19:18:47.496Z,11.23
2022-10-31T19:21:18.096Z,11.22
2022-10-31T19:23:45.627Z,11.21
2022-10-31T19:26:12.767Z,11.20
2022-10-31T19:28:40.922Z,11.19
2022-10-31T19:31:08.368Z,11.19
2022-10-31T19:33:36.383Z,11.17
2022-10-31T19:36:07.357Z,11.17
2022-10-31T19:38:35.031Z,11.16
2022-10-31T19:41:04.631Z,11.14
2022-10-31T19:43:31.094Z,11.15
2022-10-31T19:45:59.329Z,11.14
2022-10-31T19:48:26.575Z,11.12
2022-10-31T19:50:58.537Z,11.11
2022-10-31T19:53:25.195Z,11.08
2022-10-31T19:55:51.634Z,11.07
2022-10-31T19:58:18.354Z,11.06
2022-10-31T20:00:45.118Z,11.04
2022-10-31T20:03:11.676Z,11.04
2022-10-31T20:05:41.875Z,11.03
2022-10-31T20:08:20.218Z,11.04
2022-10-31T20:10:57.787Z,11.06
2022-10-31T20:13:24.956Z,11.09
2022-10-31T20:15:52.169Z,11.09
2022-10-31T20:18:19.105Z,11.10
2022-10-31T20:20:46.051Z,11.10
2022-10-31T20:23:12.514Z,11.10
2022-10-31T20:25:47.253Z,11.11
2022-10-31T20:28:13.741Z,11.12
2022-10-31T20:30:40.203Z,11.12
2022-10-31T20:33:07.125Z,11.11
2022-10-31T20:35:37.588Z,11.10
2022-10-31T20:38:04.687Z,11.09
2022-10-31T20:40:31.986Z,11.08
2022-10-31T20:42:58.812Z,11.06
2022-10-31T20:45:25.269Z,11.06
2022-10-31T20:47:51.721Z,11.05
2022-10-31T20:50:18.192Z,11.03
2022-10-31T20:52:44.686Z,11.02
2022-10-31T20:55:11.200Z,11.00
2022-10-31T20:57:37.679Z,10.99
2022-10-31T21:00:06.157Z,10.98
2022-10-31T21:02:32.963Z,10.98
2022-10-31T21:04:59.461Z,10.97
2022-10-31T21:07:25.899Z,10.98
2022-10-31T21:09:52.375Z,10.99
2022-10-31T21:12:18.853Z,10.99
2022-10-31T21:14:45.291Z,10.99
2022-10-31T21:17:11.754Z,10.98
2022-10-31T21:19:39.488Z,10.98
2022-10-31T21:22:05.953Z,10.99
2022-10-31T21:24:32.459Z,10.99
2022-10-31T21:26:58.925Z,10.98
2022-10-31T21:29:25.374Z,10.98
2022-10-31T21:31:52.208Z,10.99
2022-10-31T21:34:18.698Z,11.01
2022-10-31T21:36:45.276Z,10.99
2022-10-31T21:39:11.842Z,10.98
2022-10-31T21:41:38.293Z,10.97
2022-10-31T21:44:05.439Z,10.94
2022-10-31T21:46:33.621Z,10.93
2022-10-31T21:49:02.405Z,10.92
2022-10-31T21:51:31.410Z,10.93
2022-10-31T21:53:58.592Z,10.95
2022-10-31T21:56:25.958Z,10.96
2022-10-31T21:58:53.541Z,10.97
2022-10-31T22:01:21.286Z,10.94
2022-10-31T22:03:48.620Z,10.89
2022-10-31T22:06:15.795Z,10.84
2022-10-31T22:08:42.769Z,10.80
2022-10-31T22:11:14.866Z,10.78
2022-10-31T22:13:43.268Z,10.77
2022-10-31T22:16:15.577Z,10.76
2022-10-31T22:18:42.933Z,10.73
2022-10-31T22:21:12.432Z,10.71
2022-10-31T22:23:39.830Z,10.71
2022-10-31T22:26:08.721Z,10.71
2022-10-31T22:28:35.925Z,10.71
2022-10-31T22:31:06.196Z,10.71
2022-10-31T22:33:33.347Z,10.71
2022-10-31T22:36:11.652Z,10.69
2022-10-31T22:38:39.694Z,10.70
2022-10-31T22:41:18.530Z,10.70
2022-10-31T22:43:45.897Z,10.69
2022-10-31T22:46:24.122Z,10.69
2022-10-31T22:48:53.431Z,10.70
2022-10-31T22:51:25.967Z,10.68
2022-10-31T22:53:53.189Z,10.68
2022-10-31T22:56:21.736Z,10.70
2022-10-31T22:58:48.532Z,10.69
2022-10-31T23:01:20.378Z,10.67
2022-10-31T23:03:47.778Z,10.64
2022-10-31T23:06:20.238Z,10.63
2022-10-31T23:08:47.242Z,10.62
2022-10-31T23:11:22.431Z,10.62
2022-10-31T23:13:51.012Z,10.63
2022-10-31T23:16:17.461Z,10.63
2022-10-31T23:18:50.020Z,10.61
2022-10-31T23:21:17.430Z,10.59
2022-10-31T23:23:43.863Z,10.58
2022-10-31T23:26:10.300Z,10.60
2022-10-31T23:28:36.762Z,10.60
2022-10-31T23:31:03.241Z,10.60
2022-10-31T23:33:31.555Z,10.62
2022-10-31T23:35:58.140Z,10.63
2022-10-31T23:38:24.611Z,10.64
2022-10-31T23:40:51.050Z,10.64
2022-10-31T23:43:19.556Z,10.64
2022-10-31T23:45:46.015Z,10.66
2022-10-31T23:48:12.477Z,10.68
2022-10-31T23:50:38.971Z,10.71
2022-10-31T23:53:05.460Z,10.73
2022-10-31T23:55:31.930Z,10.74
2022-10-31T23:57:58.505Z,10.76
